createdAt,value
2022-10-24T00:00:51.673Z,20.29
2022-10-24T00:01:53.823Z,20.00
2022-10-24T00:02:56.059Z,20.03
2022-10-24T00:03:58.946Z,20.06
2022-10-24T00:05:01.775Z,20.06
2022-10-24T00:06:06.900Z,20.12
2022-10-24T00:07:09.449Z,20.22
2022-10-24T00:08:12.038Z,19.95
2022-10-24T00:09:14.300Z,20.11
2022-10-24T00:10:17.675Z,20.12
2022-10-24T00:11:25.503Z,20.32
2022-10-24T00:12:27.729Z,19.96
2022-10-24T00:13:29.949Z,19.94
2022-10-24T00:14:33.588Z,20.26
2022-10-24T00:15:35.768Z,20.04
2022-10-24T00:16:38.094Z,20.13
2022-10-24T00:17:40.517Z,20.22
2022-10-24T00:18:43.519Z,20.11
2022-10-24T00:19:45.673Z,20.02
2022-10-24T00:20:47.937Z,20.02
2022-10-24T00:21:50.162Z,20.05
2022-10-24T00:22:52.380Z,19.99
2022-10-24T00:23:54.607Z,19.98
2022-10-24T00:24:56.827Z,20.04
2022-10-24T00:26:02.045Z,19.91
2022-10-24T00:27:04.691Z,20.04
2022-10-24T00:28:07.016Z,20.13
2022-10-24T00:29:09.620Z,20.13
2022-10-24T00:30:12.395Z,20.07
2022-10-24T00:31:17.082Z,20.13
2022-10-24T00:32:19.352Z,19.73
2022-10-24T00:33:21.970Z,19.86
2022-10-24T00:34:24.144Z,19.86
2022-10-24T00:35:26.531Z,19.88
2022-10-24T00:36:29.231Z,20.05
2022-10-24T00:37:31.657Z,20.00
2022-10-24T00:38:33.916Z,20.11
2022-10-24T00:39:36.318Z,20.13
2022-10-24T00:40:38.740Z,20.13
2022-10-24T00:41:42.937Z,20.11
2022-10-24T00:42:45.447Z,19.90
2022-10-24T00:43:48.000Z,20.11
2022-10-24T00:44:53.393Z,20.12
2022-10-24T00:45:58.676Z,20.17
2022-10-24T00:47:20.695Z,19.94
2022-10-24T00:48:28.206Z,20.32
2022-10-24T00:50:01.001Z,20.36
2022-10-24T00:51:08.198Z,20.45
2022-10-24T00:52:13.271Z,20.37
2022-10-24T00:53:16.526Z,20.35
2022-10-24T00:54:19.263Z,19.95
2022-10-24T00:55:21.766Z,20.24
2022-10-24T00:56:27.869Z,20.29
2022-10-24T00:57:35.525Z,20.27
2022-10-24T00:58:39.037Z,20.06
2022-10-24T00:59:44.943Z,20.23
2022-10-24T01:00:47.166Z,19.81
2022-10-24T01:01:49.357Z,20.13
2022-10-24T01:02:52.074Z,20.34
2022-10-24T01:03:54.611Z,20.41
2022-10-24T01:04:57.141Z,20.10
2022-10-24T01:06:08.221Z,20.38
2022-10-24T01:07:47.801Z,20.61
2022-10-24T01:08:59.006Z,20.38
2022-10-24T01:10:13.196Z,20.65
2022-10-24T01:11:39.723Z,20.66
2022-10-24T01:12:48.207Z,20.68
2022-10-24T01:14:11.991Z,20.70
2022-10-24T01:15:20.538Z,19.94
2022-10-24T01:16:45.592Z,20.30
2022-10-24T01:18:22.552Z,20.67
2022-10-24T01:19:43.445Z,20.22
2022-10-24T01:20:53.376Z,20.60
2022-10-24T01:22:16.137Z,20.73
2022-10-24T01:23:27.626Z,20.61
2022-10-24T01:25:10.353Z,20.52
2022-10-24T01:26:46.347Z,20.43
2022-10-24T01:28:07.704Z,20.68
2022-10-24T01:29:47.872Z,20.74
2022-10-24T01:31:02.332Z,20.50
2022-10-24T01:32:41.135Z,20.43
2022-10-24T01:33:54.921Z,20.24
2022-10-24T01:35:02.875Z,20.23
2022-10-24T01:36:17.862Z,20.38
2022-10-24T01:37:26.762Z,20.41
2022-10-24T01:38:38.656Z,20.26
2022-10-24T01:39:45.890Z,20.15
2022-10-24T01:40:48.633Z,20.09
2022-10-24T01:41:53.587Z,20.38
2022-10-24T01:43:01.256Z,20.51
2022-10-24T01:44:09.714Z,20.43
2022-10-24T01:45:15.625Z,20.22
2022-10-24T01:46:29.111Z,20.09
2022-10-24T01:47:38.598Z,20.39
2022-10-24T01:48:46.755Z,20.47
2022-10-24T01:49:54.299Z,20.27
2022-10-24T01:50:59.937Z,20.13
2022-10-24T01:52:07.603Z,20.16
2022-10-24T01:53:11.528Z,20.11
2022-10-24T01:54:17.416Z,20.32
2022-10-24T01:55:19.788Z,20.23
2022-10-24T01:56:25.294Z,20.54
2022-10-24T01:57:33.676Z,20.42
2022-10-24T01:58:36.036Z,20.01
2022-10-24T01:59:42.778Z,20.11
2022-10-24T02:00:48.399Z,20.37
2022-10-24T02:01:52.119Z,20.31
2022-10-24T02:03:19.056Z,20.73
2022-10-24T02:04:23.917Z,20.61
2022-10-24T02:05:31.881Z,20.43
2022-10-24T02:06:37.926Z,20.53
2022-10-24T02:07:43.145Z,20.41
2022-10-24T02:08:51.296Z,20.46
2022-10-24T02:10:00.786Z,20.56
2022-10-24T02:11:06.354Z,20.41
2022-10-24T02:12:12.105Z,20.30
2022-10-24T02:13:31.186Z,20.55
2022-10-24T02:14:36.788Z,20.37
2022-10-24T02:15:44.894Z,20.51
2022-10-24T02:16:47.518Z,20.29
2022-10-24T02:17:50.123Z,20.31
2022-10-24T02:18:56.579Z,20.62
2022-10-24T02:20:00.384Z,20.57
2022-10-24T02:21:05.249Z,20.58
2022-10-24T02:22:31.562Z,20.75
2022-10-24T02:23:43.591Z,20.49
2022-10-24T02:24:52.428Z,20.41
2022-10-24T02:25:58.919Z,20.39
2022-10-24T02:27:12.611Z,20.74
2022-10-24T02:28:19.521Z,20.65
2022-10-24T02:29:44.467Z,20.53
2022-10-24T02:30:53.945Z,20.53
2022-10-24T02:31:58.679Z,20.56
2022-10-24T02:33:01.725Z,20.18
2022-10-24T02:34:07.398Z,20.60
2022-10-24T02:35:12.187Z,20.56
2022-10-24T02:36:17.663Z,20.67
2022-10-24T02:37:20.859Z,20.51
2022-10-24T02:38:28.940Z,20.68
2022-10-24T02:39:33.455Z,20.32
2022-10-24T02:40:36.642Z,20.11
2022-10-24T02:41:42.522Z,20.47
2022-10-24T02:42:47.920Z,20.37
2022-10-24T02:43:52.228Z,20.22
2022-10-24T02:44:56.154Z,20.35
2022-10-24T02:45:59.179Z,20.33
2022-10-24T02:47:05.332Z,20.37
2022-10-24T02:48:11.476Z,20.18
2022-10-24T02:49:13.857Z,20.03
2022-10-24T02:50:16.246Z,20.15
2022-10-24T02:51:21.290Z,20.38
2022-10-24T02:52:24.096Z,20.33
2022-10-24T02:53:26.480Z,20.18
2022-10-24T02:54:28.624Z,20.16
2022-10-24T02:55:31.006Z,20.11
2022-10-24T02:56:34.272Z,20.22
2022-10-24T02:57:36.405Z,20.15
2022-10-24T02:58:38.531Z,19.87
2022-10-24T02:59:40.783Z,19.86
2022-10-24T03:00:43.283Z,19.94
2022-10-24T03:01:45.491Z,19.85
2022-10-24T03:02:47.823Z,19.90
2022-10-24T03:03:50.505Z,19.99
2022-10-24T03:04:52.631Z,19.83
2022-10-24T03:05:54.813Z,19.55
2022-10-24T03:06:57.052Z,19.56
2022-10-24T03:07:59.173Z,19.62
2022-10-24T03:09:01.642Z,19.59
2022-10-24T03:10:03.957Z,19.58
2022-10-24T03:11:06.190Z,19.64
2022-10-24T03:12:08.297Z,19.55
2022-10-24T03:13:10.523Z,19.53
2022-10-24T03:14:12.773Z,19.57
2022-10-24T03:15:15.958Z,19.61
2022-10-24T03:16:18.150Z,19.56
2022-10-24T03:17:21.822Z,19.21
2022-10-24T03:18:23.940Z,19.29
2022-10-24T03:19:26.285Z,19.43
2022-10-24T03:20:28.431Z,19.44
2022-10-24T03:21:30.594Z,19.51
2022-10-24T03:22:32.855Z,19.46
2022-10-24T03:23:34.991Z,19.40
2022-10-24T03:24:43.892Z,19.36
2022-10-24T03:25:46.722Z,19.48
2022-10-24T03:26:52.110Z,19.19
2022-10-24T03:27:54.226Z,19.37
2022-10-24T03:28:56.436Z,19.32
2022-10-24T03:29:58.536Z,19.32
2022-10-24T03:31:00.652Z,18.89
2022-10-24T03:32:03.359Z,19.17
2022-10-24T03:33:05.526Z,19.20
2022-10-24T03:34:07.786Z,19.29
2022-10-24T03:35:13.272Z,19.05
2022-10-24T03:36:16.643Z,18.96
2022-10-24T03:37:18.829Z,19.06
2022-10-24T03:38:21.983Z,19.08
2022-10-24T03:39:24.306Z,18.87
2022-10-24T03:40:26.421Z,18.96
2022-10-24T03:41:28.527Z,18.88
2022-10-24T03:42:30.701Z,18.81
2022-10-24T03:43:32.845Z,18.92
2022-10-24T03:44:35.010Z,18.99
2022-10-24T03:45:37.595Z,18.74
2022-10-24T03:46:39.750Z,18.88
2022-10-24T03:47:41.844Z,18.94
2022-10-24T03:48:43.949Z,18.83
2022-10-24T03:49:46.101Z,18.74
2022-10-24T03:50:48.205Z,18.79
2022-10-24T03:51:50.416Z,18.64
2022-10-24T03:52:52.506Z,18.70
2022-10-24T03:53:54.620Z,18.77
2022-10-24T03:54:56.707Z,18.79
2022-10-24T03:56:00.386Z,18.76
2022-10-24T03:57:02.621Z,18.67
2022-10-24T03:58:04.750Z,18.65
2022-10-24T03:59:06.916Z,18.69
2022-10-24T04:00:09.821Z,18.57
2022-10-24T04:01:17.331Z,18.60
2022-10-24T04:02:19.558Z,18.71
2022-10-24T04:03:21.744Z,18.68
2022-10-24T04:04:23.891Z,18.74
2022-10-24T04:05:26.096Z,18.73
2022-10-24T04:06:30.299Z,18.59
2022-10-24T04:07:34.744Z,18.60
2022-10-24T04:08:36.924Z,18.63
2022-10-24T04:09:39.221Z,18.54
2022-10-24T04:10:41.338Z,18.61
2022-10-24T04:11:43.557Z,18.56
2022-10-24T04:12:45.704Z,18.46
2022-10-24T04:13:47.883Z,18.63
2022-10-24T04:14:50.143Z,18.59
2022-10-24T04:15:52.379Z,18.64
2022-10-24T04:16:54.510Z,18.49
2022-10-24T04:17:56.687Z,18.67
2022-10-24T04:18:58.774Z,18.67
2022-10-24T04:20:00.993Z,18.63
2022-10-24T04:21:03.943Z,18.61
2022-10-24T04:22:06.050Z,18.69
2022-10-24T04:23:08.211Z,18.68
2022-10-24T04:24:11.497Z,18.69
2022-10-24T04:25:13.801Z,18.58
2022-10-24T04:26:17.415Z,18.57
2022-10-24T04:27:19.597Z,18.34
2022-10-24T04:28:21.739Z,18.53
2022-10-24T04:29:24.016Z,18.49
2022-10-24T04:30:26.460Z,18.59
2022-10-24T04:31:28.630Z,18.48
2022-10-24T04:32:30.742Z,18.45
2022-10-24T04:33:32.857Z,18.41
2022-10-24T04:34:36.335Z,18.58
2022-10-24T04:35:38.507Z,18.60
2022-10-24T04:36:40.729Z,18.50
2022-10-24T04:37:42.895Z,18.66
2022-10-24T04:38:45.037Z,18.69
2022-10-24T04:39:47.141Z,18.57
2022-10-24T04:40:52.513Z,18.85
2022-10-24T04:41:54.702Z,18.74
2022-10-24T04:42:56.829Z,18.75
2022-10-24T04:43:58.953Z,18.86
2022-10-24T04:45:01.074Z,18.78
2022-10-24T04:46:03.561Z,18.75
2022-10-24T04:47:05.681Z,18.92
2022-10-24T04:48:07.805Z,18.98
2022-10-24T04:49:10.107Z,18.88
2022-10-24T04:50:12.279Z,18.98
2022-10-24T04:51:17.403Z,18.99
2022-10-24T04:52:22.241Z,19.11
2022-10-24T04:53:24.581Z,19.14
2022-10-24T04:54:26.764Z,19.23
2022-10-24T04:55:29.281Z,19.35
2022-10-24T04:56:31.414Z,19.15
2022-10-24T04:57:33.562Z,19.17
2022-10-24T04:58:35.727Z,19.01
2022-10-24T04:59:38.256Z,19.14
2022-10-24T05:00:42.732Z,19.27
2022-10-24T05:01:44.967Z,19.08
2022-10-24T05:02:47.222Z,19.22
2022-10-24T05:03:49.428Z,19.29
2022-10-24T05:04:51.642Z,19.29
2022-10-24T05:05:53.809Z,19.27
2022-10-24T05:06:55.987Z,19.29
2022-10-24T05:07:58.140Z,19.22
2022-10-24T05:09:00.438Z,19.13
2022-10-24T05:10:06.594Z,19.34
2022-10-24T05:11:11.350Z,19.31
2022-10-24T05:12:13.966Z,19.18
2022-10-24T05:13:16.261Z,19.31
2022-10-24T05:14:18.368Z,19.27
2022-10-24T05:15:20.664Z,19.23
2022-10-24T05:16:22.831Z,19.12
2022-10-24T05:17:24.934Z,19.17
2022-10-24T05:18:27.091Z,19.11
2022-10-24T05:19:29.262Z,19.00
2022-10-24T05:20:31.927Z,19.10
2022-10-24T05:21:34.175Z,19.00
2022-10-24T05:22:36.788Z,19.06
2022-10-24T05:23:38.935Z,18.96
2022-10-24T05:24:41.143Z,18.92
2022-10-24T05:25:43.246Z,18.90
2022-10-24T05:26:45.401Z,18.86
2022-10-24T05:27:47.598Z,18.87
2022-10-24T05:28:52.414Z,18.94
2022-10-24T05:29:55.230Z,18.87
2022-10-24T05:30:57.352Z,18.94
2022-10-24T05:31:59.487Z,18.96
2022-10-24T05:33:01.637Z,18.79
2022-10-24T05:34:03.761Z,18.83
2022-10-24T05:35:06.453Z,18.76
2022-10-24T05:36:08.740Z,18.79
2022-10-24T05:37:10.981Z,18.90
2022-10-24T05:38:13.079Z,18.88
2022-10-24T05:39:15.235Z,18.77
2022-10-24T05:40:17.435Z,18.90
2022-10-24T05:41:19.594Z,18.92
2022-10-24T05:42:21.852Z,18.99
2022-10-24T05:43:23.993Z,19.05
2022-10-24T05:44:26.188Z,19.10
2022-10-24T05:45:28.328Z,19.04
2022-10-24T05:46:30.434Z,18.99
2022-10-24T05:47:32.624Z,18.97
2022-10-24T05:48:35.944Z,19.27
2022-10-24T05:49:38.113Z,19.02
2022-10-24T05:50:40.264Z,19.05
2022-10-24T05:51:42.441Z,19.09
2022-10-24T05:52:47.194Z,19.03
2022-10-24T05:53:49.572Z,19.01
2022-10-24T05:54:55.658Z,19.17
2022-10-24T05:56:08.664Z,19.10
2022-10-24T05:57:10.835Z,19.02
2022-10-24T05:58:13.000Z,19.04
2022-10-24T05:59:15.185Z,19.06
2022-10-24T06:00:17.999Z,19.22
2022-10-24T06:01:20.199Z,19.17
2022-10-24T06:02:22.464Z,19.19
2022-10-24T06:03:24.773Z,19.07
2022-10-24T06:04:26.930Z,18.94
2022-10-24T06:05:29.167Z,19.10
2022-10-24T06:06:31.288Z,18.92
2022-10-24T06:07:33.429Z,18.82
2022-10-24T06:08:37.815Z,19.26
2022-10-24T06:09:41.544Z,18.99
2022-10-24T06:10:48.745Z,19.38
2022-10-24T06:11:50.847Z,19.13
2022-10-24T06:12:52.971Z,19.24
2022-10-24T06:13:55.102Z,19.33
2022-10-24T06:14:58.362Z,19.25
2022-10-24T06:16:00.468Z,19.08
2022-10-24T06:17:02.678Z,19.11
2022-10-24T06:18:04.882Z,19.07
2022-10-24T06:19:07.082Z,19.10
2022-10-24T06:20:09.840Z,19.08
2022-10-24T06:21:13.472Z,19.11
2022-10-24T06:22:15.578Z,18.96
2022-10-24T06:23:17.702Z,19.13
2022-10-24T06:24:19.870Z,19.07
2022-10-24T06:25:22.400Z,18.98
2022-10-24T06:26:24.766Z,18.97
2022-10-24T06:27:27.197Z,18.91
2022-10-24T06:28:29.346Z,19.11
2022-10-24T06:29:31.853Z,18.88
2022-10-24T06:30:35.552Z,19.14
2022-10-24T06:31:38.290Z,19.07
2022-10-24T06:32:43.615Z,19.18
2022-10-24T06:33:46.986Z,19.23
2022-10-24T06:34:49.145Z,19.20
2022-10-24T06:35:51.347Z,19.25
2022-10-24T06:36:54.169Z,19.18
2022-10-24T06:37:56.281Z,19.35
2022-10-24T06:38:58.414Z,19.24
2022-10-24T06:40:00.551Z,19.49
2022-10-24T06:41:10.865Z,19.64
2022-10-24T06:42:13.159Z,19.57
2022-10-24T06:43:19.508Z,19.56
2022-10-24T06:44:21.664Z,19.74
2022-10-24T06:45:23.996Z,19.79
2022-10-24T06:46:26.118Z,19.53
2022-10-24T06:47:28.260Z,19.78
2022-10-24T06:48:30.368Z,19.89
2022-10-24T06:49:33.081Z,19.99
2022-10-24T06:50:36.729Z,19.89
2022-10-24T06:51:39.914Z,19.93
2022-10-24T06:52:42.121Z,19.99
2022-10-24T06:53:44.402Z,20.13
2022-10-24T06:54:46.548Z,19.96
2022-10-24T06:55:48.703Z,19.94
2022-10-24T06:56:50.825Z,19.99
2022-10-24T06:57:53.734Z,20.24
2022-10-24T06:58:55.920Z,20.15
2022-10-24T06:59:58.041Z,20.05
2022-10-24T07:01:00.452Z,20.25
2022-10-24T07:02:05.790Z,20.06
2022-10-24T07:03:13.736Z,20.13
2022-10-24T07:04:15.858Z,20.20
2022-10-24T07:05:18.142Z,20.19
2022-10-24T07:07:30.534Z,20.35
2022-10-24T07:08:32.756Z,20.32
2022-10-24T07:09:34.938Z,20.29
2022-10-24T07:10:37.025Z,20.23
2022-10-24T07:11:39.223Z,20.14
2022-10-24T07:12:43.338Z,20.26
2022-10-24T07:13:46.232Z,20.58
2022-10-24T07:14:48.600Z,20.86
2022-10-24T07:15:54.248Z,20.96
2022-10-24T07:16:56.453Z,21.23
2022-10-24T07:17:58.639Z,21.73
2022-10-24T07:19:00.782Z,21.68
2022-10-24T07:20:03.070Z,21.76
2022-10-24T07:21:11.047Z,21.96
2022-10-24T07:22:13.136Z,22.26
2022-10-24T07:23:15.506Z,22.42
2022-10-24T07:24:17.739Z,22.15
2022-10-24T07:25:19.877Z,22.34
2022-10-24T07:26:24.547Z,22.59
2022-10-24T07:27:26.699Z,22.45
2022-10-24T07:28:28.860Z,22.49
2022-10-24T07:29:31.174Z,22.31
2022-10-24T07:30:33.443Z,22.13
2022-10-24T07:31:36.704Z,22.05
2022-10-24T07:32:38.806Z,21.72
2022-10-24T07:33:41.542Z,21.49
2022-10-24T07:34:43.707Z,21.39
2022-10-24T07:35:45.849Z,21.57
2022-10-24T07:36:48.022Z,21.81
2022-10-24T07:37:50.568Z,22.24
2022-10-24T07:38:56.093Z,22.52
2022-10-24T07:39:58.223Z,23.11
2022-10-24T07:41:06.505Z,23.08
2022-10-24T07:42:09.079Z,23.45
2022-10-24T07:43:11.288Z,23.88
2022-10-24T07:44:13.474Z,23.96
2022-10-24T07:45:15.696Z,24.11
2022-10-24T07:46:18.842Z,24.80
2022-10-24T07:47:20.984Z,24.78
2022-10-24T07:48:23.234Z,24.38
2022-10-24T07:49:26.466Z,25.03
2022-10-24T07:50:31.239Z,25.21
2022-10-24T07:51:33.323Z,25.08
2022-10-24T07:52:35.410Z,25.04
2022-10-24T07:53:37.878Z,25.10
2022-10-24T07:54:40.067Z,24.99
2022-10-24T07:55:43.703Z,25.30
2022-10-24T07:56:45.809Z,25.30
2022-10-24T07:57:48.169Z,25.33
2022-10-24T07:58:50.576Z,25.12
2022-10-24T07:59:52.687Z,25.13
2022-10-24T08:00:55.237Z,25.08
2022-10-24T08:01:57.330Z,25.79
2022-10-24T08:02:59.548Z,26.10
2022-10-24T08:04:01.636Z,26.21
2022-10-24T08:05:04.009Z,26.07
2022-10-24T08:06:12.626Z,26.31
2022-10-24T08:08:34.918Z,26.11
2022-10-24T08:09:40.088Z,25.89
2022-10-24T08:10:42.169Z,25.49
2022-10-24T08:11:44.328Z,25.77
2022-10-24T08:12:46.850Z,25.76
2022-10-24T08:13:50.386Z,25.80
2022-10-24T08:14:53.372Z,24.81
2022-10-24T08:15:56.374Z,24.44
2022-10-24T08:16:58.450Z,24.73
2022-10-24T08:18:00.587Z,24.60
2022-10-24T08:19:02.707Z,24.26
2022-10-24T08:20:06.580Z,24.95
2022-10-24T08:21:13.156Z,25.22
2022-10-24T08:22:16.827Z,25.09
2022-10-24T08:23:23.143Z,25.05
2022-10-24T08:24:26.979Z,25.30
2022-10-24T08:25:29.039Z,25.19
2022-10-24T08:26:31.163Z,25.17
2022-10-24T08:27:33.380Z,24.86
2022-10-24T08:28:36.061Z,24.72
2022-10-24T08:29:38.530Z,24.78
2022-10-24T08:30:40.605Z,24.78
2022-10-24T08:31:43.627Z,25.16
2022-10-24T08:32:46.178Z,25.57
2022-10-24T08:33:51.626Z,25.47
2022-10-24T08:34:53.782Z,25.40
2022-10-24T08:35:59.866Z,26.23
2022-10-24T08:37:02.004Z,26.02
2022-10-24T08:38:04.052Z,25.71
2022-10-24T08:39:06.156Z,24.98
2022-10-24T08:40:13.002Z,24.75
2022-10-24T08:41:35.986Z,25.23
2022-10-24T08:42:38.202Z,25.49
2022-10-24T08:43:40.324Z,26.03
2022-10-24T08:44:47.292Z,26.22
2022-10-24T08:45:58.201Z,25.77
2022-10-24T08:47:11.988Z,25.75
2022-10-24T08:48:19.531Z,25.18
2022-10-24T08:49:28.766Z,25.79
2022-10-24T08:50:34.194Z,25.60
2022-10-24T08:51:46.076Z,25.17
2022-10-24T08:53:01.743Z,24.83
2022-10-24T08:54:06.581Z,24.50
2022-10-24T08:55:43.998Z,25.25
2022-10-24T08:56:48.448Z,25.12
2022-10-24T08:57:57.580Z,25.96
2022-10-24T08:59:03.363Z,25.87
2022-10-24T09:00:21.524Z,26.05
2022-10-24T09:01:39.620Z,26.45
2022-10-24T09:02:44.450Z,26.57
2022-10-24T09:03:55.980Z,26.40
2022-10-24T09:05:03.038Z,26.28
2022-10-24T09:06:13.588Z,26.18
2022-10-24T09:07:20.967Z,26.58
2022-10-24T09:08:33.539Z,26.37
2022-10-24T09:09:42.907Z,26.23
2022-10-24T09:10:57.786Z,26.33
2022-10-24T09:12:01.248Z,26.29
2022-10-24T09:13:12.935Z,26.28
2022-10-24T09:14:17.284Z,25.84
2022-10-24T09:15:30.196Z,25.24
2022-10-24T09:16:32.420Z,25.07
2022-10-24T09:17:35.514Z,25.13
2022-10-24T09:18:43.597Z,25.57
2022-10-24T09:20:25.759Z,25.71
2022-10-24T09:21:28.453Z,25.20
2022-10-24T09:22:35.181Z,25.00
2022-10-24T09:23:38.463Z,24.70
2022-10-24T09:24:54.957Z,24.38
2022-10-24T09:25:58.405Z,24.72
2022-10-24T09:27:04.511Z,24.42
2022-10-24T09:28:06.989Z,23.83
2022-10-24T09:29:09.286Z,23.50
2022-10-24T09:30:21.396Z,24.02
2022-10-24T09:31:26.082Z,23.72
2022-10-24T09:32:32.346Z,23.88
2022-10-24T09:33:35.813Z,23.77
2022-10-24T09:34:38.023Z,23.75
2022-10-24T09:35:40.260Z,24.33
2022-10-24T09:36:42.667Z,23.13
2022-10-24T09:37:58.364Z,24.37
2022-10-24T09:39:25.207Z,24.06
2022-10-24T09:40:31.730Z,23.37
2022-10-24T09:41:34.768Z,23.50
2022-10-24T09:42:38.539Z,23.97
2022-10-24T09:43:43.685Z,23.94
2022-10-24T09:44:46.932Z,23.83
2022-10-24T09:46:01.069Z,23.87
2022-10-24T09:47:06.533Z,23.65
2022-10-24T09:48:17.365Z,23.25
2022-10-24T09:49:22.597Z,23.29
2022-10-24T09:50:25.408Z,22.98
2022-10-24T09:51:27.587Z,22.36
2022-10-24T09:52:29.867Z,22.16
2022-10-24T09:53:35.520Z,22.44
2022-10-24T09:54:37.771Z,22.07
2022-10-24T09:55:45.626Z,22.43
2022-10-24T09:57:11.190Z,22.72
2022-10-24T09:58:19.585Z,22.38
2022-10-24T09:59:42.126Z,22.35
2022-10-24T10:00:50.790Z,22.31
2022-10-24T10:01:53.279Z,22.08
2022-10-24T10:03:03.797Z,22.21
2022-10-24T10:04:09.484Z,21.34
2022-10-24T10:05:18.855Z,22.10
2022-10-24T10:06:21.170Z,21.64
2022-10-24T10:07:28.310Z,22.20
2022-10-24T10:08:34.289Z,22.05
2022-10-24T10:09:42.330Z,21.87
2022-10-24T10:10:59.562Z,22.02
2022-10-24T10:12:03.189Z,21.57
2022-10-24T10:13:09.640Z,22.10
2022-10-24T10:14:27.872Z,22.11
2022-10-24T10:15:32.752Z,22.10
2022-10-24T10:16:39.011Z,22.07
2022-10-24T10:17:50.400Z,22.24
2022-10-24T10:19:21.075Z,22.17
2022-10-24T10:20:42.079Z,22.00
2022-10-24T10:21:56.335Z,21.51
2022-10-24T10:23:22.553Z,21.62
2022-10-24T10:24:27.988Z,21.42
2022-10-24T10:25:32.049Z,21.37
2022-10-24T10:26:45.399Z,21.63
2022-10-24T10:27:51.051Z,21.83
2022-10-24T10:28:55.078Z,21.64
2022-10-24T10:30:12.222Z,21.84
2022-10-24T10:31:17.314Z,21.66
2022-10-24T10:32:25.925Z,21.92
2022-10-24T10:33:41.881Z,21.60
2022-10-24T10:34:55.042Z,21.69
2022-10-24T10:36:15.893Z,21.88
2022-10-24T10:37:33.631Z,21.81
2022-10-24T10:38:56.275Z,22.16
2022-10-24T10:40:01.243Z,21.53
2022-10-24T10:41:18.593Z,22.07
2022-10-24T10:42:23.694Z,21.94
2022-10-24T10:43:43.505Z,21.38
2022-10-24T10:45:15.866Z,21.63
2022-10-24T10:46:34.890Z,21.81
2022-10-24T10:47:47.346Z,22.17
2022-10-24T10:48:52.133Z,21.50
2022-10-24T10:49:57.725Z,21.78
2022-10-24T10:51:28.543Z,22.03
2022-10-24T10:52:37.834Z,21.79
2022-10-24T10:54:01.286Z,21.24
2022-10-24T10:55:21.657Z,21.80
2022-10-24T10:56:41.948Z,21.78
2022-10-24T10:57:54.195Z,20.92
2022-10-24T10:59:05.373Z,21.06
2022-10-24T11:00:13.250Z,21.81
2022-10-24T11:01:33.492Z,21.44
2022-10-24T11:02:54.327Z,21.82
2022-10-24T11:04:09.034Z,22.23
2022-10-24T11:05:29.484Z,22.04
2022-10-24T11:06:38.975Z,21.96
2022-10-24T11:07:48.315Z,21.83
2022-10-24T11:09:17.151Z,22.01
2022-10-24T11:10:23.206Z,21.89
2022-10-24T11:11:31.879Z,22.03
2022-10-24T11:12:40.894Z,22.00
2022-10-24T11:13:54.503Z,22.00
2022-10-24T11:15:06.660Z,21.75
2022-10-24T11:16:17.712Z,21.51
2022-10-24T11:17:27.818Z,21.40
2022-10-24T11:18:35.585Z,21.23
2022-10-24T11:19:44.660Z,21.72
2022-10-24T11:20:55.864Z,21.71
2022-10-24T11:22:03.059Z,21.64
2022-10-24T11:23:31.891Z,21.65
2022-10-24T11:24:45.251Z,21.82
2022-10-24T11:26:07.860Z,21.48
2022-10-24T11:27:17.618Z,21.57
2022-10-24T11:28:44.327Z,21.88
2022-10-24T11:29:57.132Z,22.06
2022-10-24T11:31:11.442Z,22.07
2022-10-24T11:32:20.544Z,22.33
2022-10-24T11:33:27.594Z,21.93
2022-10-24T11:34:46.879Z,22.24
2022-10-24T11:36:06.449Z,22.38
2022-10-24T11:37:20.853Z,22.69
2022-10-24T11:38:25.783Z,22.72
2022-10-24T11:39:33.223Z,22.77
2022-10-24T11:40:35.532Z,22.67
2022-10-24T11:41:48.101Z,23.25
2022-10-24T11:43:01.897Z,23.91
2022-10-24T11:44:18.951Z,24.61
2022-10-24T11:45:24.793Z,25.24
2022-10-24T11:46:34.427Z,25.06
2022-10-24T11:47:54.997Z,25.25
2022-10-24T11:49:09.929Z,24.80
2022-10-24T11:50:41.221Z,24.51
2022-10-24T11:51:59.571Z,24.91
2022-10-24T11:53:13.480Z,24.66
2022-10-24T11:54:21.398Z,23.98
2022-10-24T11:55:39.018Z,24.29
2022-10-24T11:56:47.107Z,23.97
2022-10-24T11:57:54.288Z,23.88
2022-10-24T11:59:06.223Z,23.31
2022-10-24T12:00:18.342Z,23.23
2022-10-24T12:01:51.146Z,22.85
2022-10-24T12:03:08.330Z,22.52
2022-10-24T12:04:47.227Z,22.56
2022-10-24T12:06:01.835Z,21.97
2022-10-24T12:07:23.938Z,22.47
2022-10-24T12:08:31.830Z,22.41
2022-10-24T12:09:55.723Z,22.25
2022-10-24T12:11:12.720Z,21.97
2022-10-24T12:12:31.901Z,22.16
2022-10-24T12:13:59.638Z,22.30
2022-10-24T12:15:08.291Z,22.30
2022-10-24T12:16:25.837Z,22.11
2022-10-24T12:17:46.936Z,22.45
2022-10-24T12:18:56.233Z,21.62
2022-10-24T12:20:01.477Z,21.79
2022-10-24T12:21:07.221Z,22.49
2022-10-24T12:22:17.637Z,23.80
2022-10-24T12:23:23.530Z,24.40
2022-10-24T12:24:38.746Z,24.51
2022-10-24T12:25:45.666Z,25.04
2022-10-24T12:27:02.752Z,26.05
2022-10-24T12:28:12.207Z,26.02
2022-10-24T12:29:24.138Z,25.27
2022-10-24T12:30:28.615Z,24.77
2022-10-24T12:31:37.366Z,25.19
2022-10-24T12:32:48.012Z,24.84
2022-10-24T12:34:10.210Z,24.74
2022-10-24T12:35:31.333Z,24.98
2022-10-24T12:37:12.090Z,24.68
2022-10-24T12:38:39.717Z,25.40
2022-10-24T12:39:47.904Z,25.43
2022-10-24T12:41:09.295Z,25.90
2022-10-24T12:42:24.680Z,25.70
2022-10-24T12:43:33.186Z,25.24
2022-10-24T12:44:37.411Z,24.44
2022-10-24T12:45:39.797Z,24.52
2022-10-24T12:46:41.877Z,24.04
2022-10-24T12:48:00.790Z,23.34
2022-10-24T12:49:02.846Z,23.17
2022-10-24T12:50:23.253Z,22.83
2022-10-24T12:51:32.869Z,22.75
2022-10-24T12:52:38.027Z,22.80
2022-10-24T12:54:05.609Z,22.99
2022-10-24T12:55:29.297Z,22.18
2022-10-24T12:56:33.771Z,22.29
2022-10-24T12:57:38.015Z,22.30
2022-10-24T12:58:42.827Z,22.18
2022-10-24T12:59:54.370Z,21.57
2022-10-24T13:01:04.686Z,21.74
2022-10-24T13:02:15.849Z,21.60
2022-10-24T13:03:39.372Z,21.93
2022-10-24T13:05:15.337Z,21.46
2022-10-24T13:06:37.008Z,21.53
2022-10-24T13:07:51.464Z,21.64
2022-10-24T13:09:16.328Z,21.47
2022-10-24T13:10:42.412Z,21.67
2022-10-24T13:12:22.181Z,21.89
2022-10-24T13:13:33.402Z,21.88
2022-10-24T13:14:56.932Z,21.76
2022-10-24T13:16:34.202Z,22.50
2022-10-24T13:18:14.120Z,23.09
2022-10-24T13:19:18.578Z,23.96
2022-10-24T13:20:20.711Z,24.02
2022-10-24T13:21:32.661Z,24.41
2022-10-24T13:22:37.232Z,23.99
2022-10-24T13:23:39.807Z,23.29
2022-10-24T13:24:42.021Z,22.90
2022-10-24T13:25:45.559Z,22.76
2022-10-24T13:27:12.642Z,22.66
2022-10-24T13:28:23.953Z,22.68
2022-10-24T13:29:26.002Z,21.91
2022-10-24T13:30:28.310Z,21.88
2022-10-24T13:31:30.350Z,21.63
2022-10-24T13:32:35.997Z,22.25
2022-10-24T13:33:38.090Z,22.02
2022-10-24T13:34:40.189Z,22.05
2022-10-24T13:35:42.505Z,21.83
2022-10-24T13:36:47.379Z,21.93
2022-10-24T13:37:51.171Z,22.20
2022-10-24T13:38:59.621Z,22.28
2022-10-24T13:40:13.989Z,22.26
2022-10-24T13:41:39.674Z,21.86
2022-10-24T13:43:14.154Z,21.79
2022-10-24T13:44:19.331Z,21.81
2022-10-24T13:45:29.485Z,21.10
2022-10-24T13:46:46.842Z,21.85
2022-10-24T13:48:13.113Z,22.29
2022-10-24T13:49:41.411Z,22.40
2022-10-24T13:51:05.231Z,22.59
2022-10-24T13:52:16.116Z,22.47
2022-10-24T13:53:30.568Z,22.32
2022-10-24T13:54:36.554Z,22.03
2022-10-24T13:55:47.988Z,21.99
2022-10-24T13:56:50.168Z,21.80
2022-10-24T13:58:01.027Z,22.02
2022-10-24T13:59:03.446Z,21.85
2022-10-24T14:00:18.344Z,22.21
2022-10-24T14:01:30.230Z,22.06
2022-10-24T14:02:38.215Z,21.33
2022-10-24T14:03:43.898Z,21.46
2022-10-24T14:04:47.980Z,21.66
2022-10-24T14:05:53.071Z,21.52
2022-10-24T14:07:02.477Z,21.90
2022-10-24T14:08:07.205Z,21.67
2022-10-24T14:09:11.667Z,21.83
2022-10-24T14:10:17.056Z,22.25
2022-10-24T14:11:23.954Z,21.67
2022-10-24T14:12:30.082Z,21.80
2022-10-24T14:13:36.307Z,21.69
2022-10-24T14:14:42.856Z,21.72
2022-10-24T14:15:51.797Z,22.02
2022-10-24T14:17:07.725Z,22.04
2022-10-24T14:18:14.355Z,21.49
2022-10-24T14:19:29.616Z,21.89
2022-10-24T14:20:37.833Z,21.36
2022-10-24T14:21:42.132Z,21.46
2022-10-24T14:22:44.815Z,21.48
2022-10-24T14:23:57.335Z,21.78
2022-10-24T14:24:59.456Z,21.52
2022-10-24T14:26:03.451Z,21.42
2022-10-24T14:27:05.583Z,21.28
2022-10-24T14:28:20.516Z,21.69
2022-10-24T14:29:27.577Z,21.54